sensor_id;sensor_type;location;lat;lon;timestamp;P1;durP1;ratioP1;P2;durP2;ratioP2
35506;SDS011;36461;52.018;21.036;2023-02-01T00:01:21;5.40;;;3.90;;
35506;SDS011;36461;52.018;21.036;2023-02-01T00:03:49;4.90;;;3.40;;
35506;SDS011;36461;52.018;21.036;2023-02-01T00:06:16;3.80;;;3.10;;
35506;SDS011;36461;52.018;21.036;2023-02-01T00:08:44;3.80;;;2.90;;
35506;SDS011;36461;52.018;21.036;2023-02-01T00:11:12;3.40;;;2.90;;
35506;SDS011;36461;52.018;21.036;2023-02-01T00:13:41;4.00;;;2.90;;
35506;SDS011;36461;52.018;21.036;2023-02-01T00:16:14;3.90;;;3.00;;
35506;SDS011;36461;52.018;21.036;2023-02-01T00:18:44;4.00;;;2.90;;
35506;SDS011;36461;52.018;21.036;2023-02-01T00:21:14;3.90;;;2.70;;
35506;SDS011;36461;52.018;21.036;2023-02-01T00:23:43;5.00;;;2.90;;
35506;SDS011;36461;52.018;21.036;2023-02-01T00:26:16;3.00;;;2.40;;
35506;SDS011;36461;52.018;21.036;2023-02-01T00:28:46;4.10;;;2.80;;
35506;SDS011;36461;52.018;21.036;2023-02-01T00:31:14;3.50;;;2.90;;
35506;SDS011;36461;52.018;21.036;2023-02-01T00:33:42;3.70;;;2.80;;
35506;SDS011;36461;52.018;21.036;2023-02-01T00:36:14;2.90;;;2.60;;
35506;SDS011;36461;52.018;21.036;2023-02-01T00:38:43;3.10;;;2.70;;
35506;SDS011;36461;52.018;21.036;2023-02-01T00:41:18;3.60;;;2.90;;
35506;SDS011;36461;52.018;21.036;2023-02-01T00:43:48;3.60;;;2.90;;
35506;SDS011;36461;52.018;21.036;2023-02-01T00:46:18;4.10;;;3.00;;
35506;SDS011;36461;52.018;21.036;2023-02-01T00:48:47;3.60;;;3.10;;
35506;SDS011;36461;52.018;21.036;2023-02-01T00:51:19;4.90;;;3.60;;
35506;SDS011;36461;52.018;21.036;2023-02-01T00:53:49;6.40;;;3.20;;
35506;SDS011;36461;52.018;21.036;2023-02-01T00:56:18;5.00;;;3.30;;
35506;SDS011;36461;52.018;21.036;2023-02-01T00:58:47;4.70;;;2.90;;
35506;SDS011;36461;52.018;21.036;2023-02-01T01:03:50;5.00;;;2.60;;
35506;SDS011;36461;52.018;21.036;2023-02-01T01:06:22;3.70;;;2.40;;
35506;SDS011;36461;52.018;21.036;2023-02-01T01:08:52;4.50;;;2.20;;
35506;SDS011;36461;52.018;21.036;2023-02-01T01:11:23;4.60;;;2.40;;
35506;SDS011;36461;52.018;21.036;2023-02-01T01:13:54;3.40;;;1.90;;
35506;SDS011;36461;52.018;21.036;2023-02-01T01:16:24;2.80;;;2.00;;
35506;SDS011;36461;52.018;21.036;2023-02-01T01:18:55;3.30;;;2.20;;
35506;SDS011;36461;52.018;21.036;2023-02-01T01:21:24;4.20;;;2.30;;
35506;SDS011;36461;52.018;21.036;2023-02-01T01:23:52;6.10;;;2.10;;
35506;SDS011;36461;52.018;21.036;2023-02-01T01:26:22;4.40;;;2.20;;
35506;SDS011;36461;52.018;21.036;2023-02-01T01:28:52;4.80;;;2.20;;
35506;SDS011;36461;52.018;21.036;2023-02-01T01:31:23;4.80;;;2.30;;
35506;SDS011;36461;52.018;21.036;2023-02-01T01:33:53;3.20;;;2.10;;
35506;SDS011;36461;52.018;21.036;2023-02-01T01:36:23;7.10;;;2.00;;
35506;SDS011;36461;52.018;21.036;2023-02-01T01:38:52;7.80;;;2.20;;
35506;SDS011;36461;52.018;21.036;2023-02-01T01:41:21;4.60;;;1.90;;
35506;SDS011;36461;52.018;21.036;2023-02-01T01:43:55;6.50;;;2.00;;
35506;SDS011;36461;52.018;21.036;2023-02-01T01:46:35;3.50;;;1.70;;
35506;SDS011;36461;52.018;21.036;2023-02-01T01:49:10;2.80;;;1.80;;
35506;SDS011;36461;52.018;21.036;2023-02-01T01:51:52;3.60;;;1.90;;
35506;SDS011;36461;52.018;21.036;2023-02-01T01:57:27;7.90;;;2.10;;
35506;SDS011;36461;52.018;21.036;2023-02-01T02:00:07;9.50;;;2.00;;
35506;SDS011;36461;52.018;21.036;2023-02-01T02:02:42;5.30;;;1.80;;
35506;SDS011;36461;52.018;21.036;2023-02-01T02:05:12;6.80;;;2.20;;
35506;SDS011;36461;52.018;21.036;2023-02-01T02:07:43;5.40;;;2.00;;
35506;SDS011;36461;52.018;21.036;2023-02-01T02:10:16;5.10;;;2.20;;
35506;SDS011;36461;52.018;21.036;2023-02-01T02:12:46;6.40;;;2.30;;
35506;SDS011;36461;52.018;21.036;2023-02-01T02:15:16;4.20;;;2.00;;
35506;SDS011;36461;52.018;21.036;2023-02-01T02:41:18;7.50;;;2.30;;
35506;SDS011;36461;52.018;21.036;2023-02-01T02:44:12;6.40;;;2.60;;
35506;SDS011;36461;52.018;21.036;2023-02-01T02:47:31;7.60;;;2.10;;
35506;SDS011;36461;52.018;21.036;2023-02-01T02:50:11;5.30;;;2.10;;
35506;SDS011;36461;52.018;21.036;2023-02-01T02:53:13;5.30;;;2.00;;
35506;SDS011;36461;52.018;21.036;2023-02-01T02:56:07;7.20;;;1.70;;
35506;SDS011;36461;52.018;21.036;2023-02-01T02:58:57;8.10;;;2.10;;
35506;SDS011;36461;52.018;21.036;2023-02-01T03:01:45;7.00;;;2.20;;
35506;SDS011;36461;52.018;21.036;2023-02-01T03:04:31;5.60;;;1.90;;
35506;SDS011;36461;52.018;21.036;2023-02-01T03:07:13;6.20;;;1.70;;
35506;SDS011;36461;52.018;21.036;2023-02-01T03:10:05;6.30;;;2.00;;
35506;SDS011;36461;52.018;21.036;2023-02-01T03:12:37;8.10;;;2.40;;
35506;SDS011;36461;52.018;21.036;2023-02-01T03:21:23;7.10;;;2.10;;
35506;SDS011;36461;52.018;21.036;2023-02-01T03:23:58;9.60;;;2.30;;
35506;SDS011;36461;52.018;21.036;2023-02-01T03:26:31;6.90;;;2.20;;
35506;SDS011;36461;52.018;21.036;2023-02-01T03:29:08;5.30;;;2.30;;
35506;SDS011;36461;52.018;21.036;2023-02-01T03:31:42;5.80;;;2.00;;
35506;SDS011;36461;52.018;21.036;2023-02-01T03:34:11;6.00;;;1.80;;
35506;SDS011;36461;52.018;21.036;2023-02-01T03:37:01;7.50;;;1.90;;
35506;SDS011;36461;52.018;21.036;2023-02-01T03:39:34;10.10;;;2.20;;
35506;SDS011;36461;52.018;21.036;2023-02-01T03:42:12;7.50;;;2.30;;
35506;SDS011;36461;52.018;21.036;2023-02-01T03:44:48;6.90;;;2.20;;
35506;SDS011;36461;52.018;21.036;2023-02-01T03:47:26;5.50;;;2.00;;
35506;SDS011;36461;52.018;21.036;2023-02-01T03:50:02;6.50;;;2.20;;
35506;SDS011;36461;52.018;21.036;2023-02-01T03:52:38;6.50;;;2.20;;
35506;SDS011;36461;52.018;21.036;2023-02-01T03:55:10;7.80;;;2.20;;
35506;SDS011;36461;52.018;21.036;2023-02-01T03:57:45;9.00;;;2.10;;
35506;SDS011;36461;52.018;21.036;2023-02-01T04:00:19;8.10;;;3.00;;
35506;SDS011;36461;52.018;21.036;2023-02-01T04:02:52;6.50;;;1.90;;
35506;SDS011;36461;52.018;21.036;2023-02-01T04:05:21;7.10;;;2.00;;
35506;SDS011;36461;52.018;21.036;2023-02-01T04:07:59;11.00;;;2.50;;
35506;SDS011;36461;52.018;21.036;2023-02-01T04:10:27;8.10;;;2.20;;
35506;SDS011;36461;52.018;21.036;2023-02-01T04:12:55;9.70;;;2.60;;
35506;SDS011;36461;52.018;21.036;2023-02-01T04:15:24;6.40;;;2.00;;
35506;SDS011;36461;52.018;21.036;2023-02-01T04:17:52;5.70;;;2.10;;
35506;SDS011;36461;52.018;21.036;2023-02-01T04:20:20;7.40;;;2.20;;
35506;SDS011;36461;52.018;21.036;2023-02-01T04:22:49;11.40;;;2.40;;
35506;SDS011;36461;52.018;21.036;2023-02-01T04:25:17;7.90;;;1.90;;
35506;SDS011;36461;52.018;21.036;2023-02-01T04:27:46;7.00;;;1.90;;
35506;SDS011;36461;52.018;21.036;2023-02-01T04:30:15;8.60;;;2.10;;
35506;SDS011;36461;52.018;21.036;2023-02-01T04:32:43;9.20;;;2.00;;
35506;SDS011;36461;52.018;21.036;2023-02-01T04:35:11;8.40;;;2.30;;
35506;SDS011;36461;52.018;21.036;2023-02-01T04:37:39;7.20;;;1.90;;
35506;SDS011;36461;52.018;21.036;2023-02-01T04:40:07;8.70;;;2.50;;
35506;SDS011;36461;52.018;21.036;2023-02-01T04:42:36;7.00;;;2.10;;
35506;SDS011;36461;52.018;21.036;2023-02-01T04:45:05;9.70;;;2.70;;
35506;SDS011;36461;52.018;21.036;2023-02-01T04:47:33;7.40;;;2.10;;
35506;SDS011;36461;52.018;21.036;2023-02-01T04:50:02;6.70;;;2.50;;
35506;SDS011;36461;52.018;21.036;2023-02-01T04:52:31;7.50;;;2.20;;
35506;SDS011;36461;52.018;21.036;2023-02-01T04:54:59;8.00;;;2.10;;
35506;SDS011;36461;52.018;21.036;2023-02-01T04:57:28;8.50;;;2.20;;
35506;SDS011;36461;52.018;21.036;2023-02-01T04:59:56;8.50;;;2.10;;
35506;SDS011;36461;52.018;21.036;2023-02-01T05:02:24;7.20;;;2.30;;
35506;SDS011;36461;52.018;21.036;2023-02-01T05:04:53;9.80;;;2.80;;
35506;SDS011;36461;52.018;21.036;2023-02-01T05:07:21;6.90;;;2.40;;
35506;SDS011;36461;52.018;21.036;2023-02-01T05:09:49;7.60;;;2.10;;
35506;SDS011;36461;52.018;21.036;2023-02-01T05:12:18;4.20;;;1.70;;
35506;SDS011;36461;52.018;21.036;2023-02-01T05:15:05;5.10;;;1.80;;
35506;SDS011;36461;52.018;21.036;2023-02-01T05:17:34;7.70;;;2.00;;
35506;SDS011;36461;52.018;21.036;2023-02-01T05:20:02;9.50;;;2.20;;
35506;SDS011;36461;52.018;21.036;2023-02-01T05:22:31;7.60;;;2.40;;
35506;SDS011;36461;52.018;21.036;2023-02-01T05:24:59;8.80;;;2.50;;
35506;SDS011;36461;52.018;21.036;2023-02-01T05:27:28;8.70;;;2.30;;
35506;SDS011;36461;52.018;21.036;2023-02-01T05:29:58;9.70;;;3.50;;
35506;SDS011;36461;52.018;21.036;2023-02-01T05:32:26;12.50;;;3.60;;
35506;SDS011;36461;52.018;21.036;2023-02-01T05:34:54;9.80;;;3.20;;
35506;SDS011;36461;52.018;21.036;2023-02-01T05:37:22;11.20;;;3.40;;
35506;SDS011;36461;52.018;21.036;2023-02-01T05:39:50;8.80;;;2.60;;
35506;SDS011;36461;52.018;21.036;2023-02-01T05:42:18;7.10;;;1.80;;
35506;SDS011;36461;52.018;21.036;2023-02-01T05:44:47;15.50;;;2.90;;
35506;SDS011;36461;52.018;21.036;2023-02-01T05:47:15;8.70;;;2.30;;
35506;SDS011;36461;52.018;21.036;2023-02-01T05:49:43;7.90;;;2.20;;
35506;SDS011;36461;52.018;21.036;2023-02-01T05:52:11;7.70;;;2.10;;
35506;SDS011;36461;52.018;21.036;2023-02-01T05:54:39;6.60;;;1.90;;
35506;SDS011;36461;52.018;21.036;2023-02-01T05:57:07;6.40;;;2.40;;
35506;SDS011;36461;52.018;21.036;2023-02-01T05:59:35;4.90;;;2.00;;
35506;SDS011;36461;52.018;21.036;2023-02-01T06:02:08;10.00;;;2.40;;
35506;SDS011;36461;52.018;21.036;2023-02-01T06:04:37;7.20;;;1.80;;
35506;SDS011;36461;52.018;21.036;2023-02-01T06:07:07;7.00;;;2.20;;
35506;SDS011;36461;52.018;21.036;2023-02-01T06:09:38;8.30;;;2.00;;
35506;SDS011;36461;52.018;21.036;2023-02-01T06:12:06;6.40;;;1.70;;
35506;SDS011;36461;52.018;21.036;2023-02-01T06:14:34;8.40;;;1.90;;
35506;SDS011;36461;52.018;21.036;2023-02-01T06:17:02;10.30;;;2.00;;
35506;SDS011;36461;52.018;21.036;2023-02-01T06:19:31;6.20;;;1.80;;
35506;SDS011;36461;52.018;21.036;2023-02-01T06:21:59;6.90;;;1.80;;
35506;SDS011;36461;52.018;21.036;2023-02-01T06:24:27;7.00;;;2.00;;
35506;SDS011;36461;52.018;21.036;2023-02-01T06:26:55;7.20;;;2.20;;
35506;SDS011;36461;52.018;21.036;2023-02-01T06:29:23;5.90;;;1.70;;
35506;SDS011;36461;52.018;21.036;2023-02-01T06:31:51;8.30;;;2.20;;
35506;SDS011;36461;52.018;21.036;2023-02-01T06:34:20;7.20;;;1.90;;
35506;SDS011;36461;52.018;21.036;2023-02-01T06:36:50;7.50;;;2.20;;
35506;SDS011;36461;52.018;21.036;2023-02-01T06:39:18;9.50;;;2.50;;
35506;SDS011;36461;52.018;21.036;2023-02-01T06:41:47;8.60;;;2.20;;
35506;SDS011;36461;52.018;21.036;2023-02-01T06:44:16;5.50;;;1.90;;
35506;SDS011;36461;52.018;21.036;2023-02-01T06:46:44;10.60;;;2.50;;
35506;SDS011;36461;52.018;21.036;2023-02-01T06:49:12;8.60;;;2.50;;
35506;SDS011;36461;52.018;21.036;2023-02-01T06:51:40;6.30;;;2.30;;
35506;SDS011;36461;52.018;21.036;2023-02-01T06:54:09;8.20;;;2.40;;
35506;SDS011;36461;52.018;21.036;2023-02-01T06:56:36;8.20;;;2.50;;
35506;SDS011;36461;52.018;21.036;2023-02-01T06:59:05;6.60;;;2.50;;
35506;SDS011;36461;52.018;21.036;2023-02-01T07:01:34;8.10;;;2.50;;
35506;SDS011;36461;52.018;21.036;2023-02-01T07:04:02;6.80;;;2.30;;
35506;SDS011;36461;52.018;21.036;2023-02-01T07:06:31;10.40;;;2.60;;
35506;SDS011;36461;52.018;21.036;2023-02-01T07:08:59;10.00;;;2.00;;
35506;SDS011;36461;52.018;21.036;2023-02-01T07:11:28;9.50;;;2.20;;
35506;SDS011;36461;52.018;21.036;2023-02-01T07:13:56;5.70;;;1.90;;
35506;SDS011;36461;52.018;21.036;2023-02-01T07:16:24;6.60;;;2.00;;
35506;SDS011;36461;52.018;21.036;2023-02-01T07:18:53;7.60;;;2.40;;
35506;SDS011;36461;52.018;21.036;2023-02-01T07:21:21;9.90;;;2.40;;
35506;SDS011;36461;52.018;21.036;2023-02-01T07:23:50;8.00;;;2.10;;
35506;SDS011;36461;52.018;21.036;2023-02-01T07:26:18;6.50;;;2.70;;
35506;SDS011;36461;52.018;21.036;2023-02-01T07:28:46;8.90;;;2.40;;
35506;SDS011;36461;52.018;21.036;2023-02-01T07:31:15;8.70;;;2.70;;
35506;SDS011;36461;52.018;21.036;2023-02-01T07:33:49;7.30;;;2.40;;
35506;SDS011;36461;52.018;21.036;2023-02-01T07:36:20;7.50;;;2.10;;
35506;SDS011;36461;52.018;21.036;2023-02-01T07:38:48;7.30;;;2.10;;
35506;SDS011;36461;52.018;21.036;2023-02-01T07:41:18;9.80;;;1.80;;
35506;SDS011;36461;52.018;21.036;2023-02-01T07:43:46;9.40;;;2.40;;
35506;SDS011;36461;52.018;21.036;2023-02-01T07:46:14;8.80;;;2.30;;
35506;SDS011;36461;52.018;21.036;2023-02-01T07:48:43;11.20;;;2.70;;
35506;SDS011;36461;52.018;21.036;2023-02-01T07:51:12;6.10;;;2.10;;
35506;SDS011;36461;52.018;21.036;2023-02-01T07:53:43;9.40;;;2.50;;
35506;SDS011;36461;52.018;21.036;2023-02-01T07:56:13;7.10;;;2.50;;
35506;SDS011;36461;52.018;21.036;2023-02-01T07:58:46;6.10;;;2.10;;
35506;SDS011;36461;52.018;21.036;2023-02-01T08:01:16;8.00;;;2.00;;
35506;SDS011;36461;52.018;21.036;2023-02-01T08:03:48;10.10;;;2.80;;
35506;SDS011;36461;52.018;21.036;2023-02-01T08:06:22;10.00;;;3.30;;
35506;SDS011;36461;52.018;21.036;2023-02-01T08:08:52;10.40;;;2.20;;
35506;SDS011;36461;52.018;21.036;2023-02-01T08:11:21;10.10;;;2.50;;
35506;SDS011;36461;52.018;21.036;2023-02-01T08:13:50;8.50;;;2.50;;
35506;SDS011;36461;52.018;21.036;2023-02-01T08:16:19;8.00;;;2.20;;
35506;SDS011;36461;52.018;21.036;2023-02-01T08:18:49;13.80;;;2.80;;
35506;SDS011;36461;52.018;21.036;2023-02-01T08:21:24;8.50;;;2.80;;
35506;SDS011;36461;52.018;21.036;2023-02-01T08:24:05;6.00;;;2.40;;
35506;SDS011;36461;52.018;21.036;2023-02-01T08:26:34;6.80;;;2.40;;
35506;SDS011;36461;52.018;21.036;2023-02-01T08:29:03;9.20;;;2.90;;
35506;SDS011;36461;52.018;21.036;2023-02-01T08:31:32;11.10;;;2.60;;
35506;SDS011;36461;52.018;21.036;2023-02-01T08:34:01;10.60;;;2.60;;
35506;SDS011;36461;52.018;21.036;2023-02-01T08:36:31;7.70;;;2.60;;
35506;SDS011;36461;52.018;21.036;2023-02-01T08:39:00;8.20;;;2.70;;
35506;SDS011;36461;52.018;21.036;2023-02-01T08:41:33;8.70;;;2.10;;
35506;SDS011;36461;52.018;21.036;2023-02-01T08:44:01;8.70;;;2.50;;
35506;SDS011;36461;52.018;21.036;2023-02-01T08:46:29;9.70;;;2.50;;
35506;SDS011;36461;52.018;21.036;2023-02-01T08:48:57;7.30;;;2.20;;
35506;SDS011;36461;52.018;21.036;2023-02-01T08:51:25;6.90;;;2.20;;
35506;SDS011;36461;52.018;21.036;2023-02-01T08:53:53;8.60;;;2.40;;
35506;SDS011;36461;52.018;21.036;2023-02-01T08:56:21;5.40;;;2.30;;
35506;SDS011;36461;52.018;21.036;2023-02-01T08:58:50;7.20;;;2.60;;
35506;SDS011;36461;52.018;21.036;2023-02-01T09:01:18;6.50;;;2.10;;
35506;SDS011;36461;52.018;21.036;2023-02-01T09:03:47;10.90;;;2.60;;
35506;SDS011;36461;52.018;21.036;2023-02-01T09:06:15;11.60;;;3.00;;
35506;SDS011;36461;52.018;21.036;2023-02-01T09:08:43;12.40;;;2.60;;
35506;SDS011;36461;52.018;21.036;2023-02-01T09:11:13;9.70;;;2.80;;
35506;SDS011;36461;52.018;21.036;2023-02-01T09:13:43;8.80;;;2.20;;
35506;SDS011;36461;52.018;21.036;2023-02-01T09:16:12;8.70;;;2.50;;
35506;SDS011;36461;52.018;21.036;2023-02-01T09:18:40;10.60;;;2.70;;
35506;SDS011;36461;52.018;21.036;2023-02-01T09:21:28;10.00;;;2.50;;
35506;SDS011;36461;52.018;21.036;2023-02-01T09:23:57;8.00;;;2.30;;
35506;SDS011;36461;52.018;21.036;2023-02-01T09:26:25;6.50;;;2.40;;
35506;SDS011;36461;52.018;21.036;2023-02-01T09:28:59;6.90;;;2.60;;
35506;SDS011;36461;52.018;21.036;2023-02-01T09:31:28;8.90;;;2.10;;
35506;SDS011;36461;52.018;21.036;2023-02-01T09:33:58;11.90;;;2.70;;
35506;SDS011;36461;52.018;21.036;2023-02-01T09:36:26;9.20;;;2.50;;
35506;SDS011;36461;52.018;21.036;2023-02-01T09:38:58;8.50;;;2.10;;
35506;SDS011;36461;52.018;21.036;2023-02-01T09:44:32;8.80;;;2.60;;
35506;SDS011;36461;52.018;21.036;2023-02-01T09:47:23;16.30;;;6.10;;
35506;SDS011;36461;52.018;21.036;2023-02-01T09:49:55;10.20;;;3.90;;
35506;SDS011;36461;52.018;21.036;2023-02-01T09:52:43;10.30;;;2.70;;
35506;SDS011;36461;52.018;21.036;2023-02-01T09:55:18;7.30;;;2.30;;
35506;SDS011;36461;52.018;21.036;2023-02-01T09:57:55;10.30;;;2.60;;
35506;SDS011;36461;52.018;21.036;2023-02-01T10:00:30;6.00;;;2.40;;
35506;SDS011;36461;52.018;21.036;2023-02-01T10:03:03;13.80;;;7.30;;
35506;SDS011;36461;52.018;21.036;2023-02-01T10:11:16;10.90;;;2.90;;
35506;SDS011;36461;52.018;21.036;2023-02-01T10:14:07;7.50;;;2.40;;
35506;SDS011;36461;52.018;21.036;2023-02-01T10:25:23;10.90;;;2.30;;
35506;SDS011;36461;52.018;21.036;2023-02-01T10:27:56;9.40;;;2.40;;
35506;SDS011;36461;52.018;21.036;2023-02-01T10:30:30;9.10;;;2.70;;
35506;SDS011;36461;52.018;21.036;2023-02-01T10:33:16;8.00;;;2.70;;
35506;SDS011;36461;52.018;21.036;2023-02-01T10:35:46;7.90;;;2.40;;
35506;SDS011;36461;52.018;21.036;2023-02-01T10:38:26;7.80;;;2.60;;
35506;SDS011;36461;52.018;21.036;2023-02-01T10:40:58;6.70;;;2.40;;
35506;SDS011;36461;52.018;21.036;2023-02-01T10:43:31;8.00;;;2.50;;
35506;SDS011;36461;52.018;21.036;2023-02-01T10:46:01;9.70;;;3.20;;
35506;SDS011;36461;52.018;21.036;2023-02-01T10:48:29;9.30;;;2.70;;
35506;SDS011;36461;52.018;21.036;2023-02-01T10:51:04;10.10;;;2.60;;
35506;SDS011;36461;52.018;21.036;2023-02-01T10:56:27;11.00;;;3.20;;
35506;SDS011;36461;52.018;21.036;2023-02-01T10:59:06;8.70;;;2.60;;
35506;SDS011;36461;52.018;21.036;2023-02-01T11:01:43;8.50;;;3.50;;
35506;SDS011;36461;52.018;21.036;2023-02-01T11:04:16;11.20;;;3.10;;
35506;SDS011;36461;52.018;21.036;2023-02-01T11:06:49;13.40;;;3.10;;
35506;SDS011;36461;52.018;21.036;2023-02-01T11:09:21;9.20;;;2.70;;
35506;SDS011;36461;52.018;21.036;2023-02-01T11:16:57;9.60;;;2.70;;
35506;SDS011;36461;52.018;21.036;2023-02-01T11:19:30;8.00;;;2.40;;
35506;SDS011;36461;52.018;21.036;2023-02-01T11:21:59;8.40;;;2.10;;
35506;SDS011;36461;52.018;21.036;2023-02-01T11:24:29;7.30;;;2.50;;
35506;SDS011;36461;52.018;21.036;2023-02-01T11:27:04;6.70;;;2.10;;
35506;SDS011;36461;52.018;21.036;2023-02-01T11:29:53;7.70;;;2.60;;
35506;SDS011;36461;52.018;21.036;2023-02-01T11:32:26;8.50;;;2.20;;
35506;SDS011;36461;52.018;21.036;2023-02-01T11:34:56;9.00;;;2.70;;
35506;SDS011;36461;52.018;21.036;2023-02-01T11:37:37;7.30;;;2.60;;
35506;SDS011;36461;52.018;21.036;2023-02-01T11:42:53;8.90;;;2.50;;
35506;SDS011;36461;52.018;21.036;2023-02-01T11:47:54;7.40;;;2.50;;
35506;SDS011;36461;52.018;21.036;2023-02-01T11:50:32;13.00;;;4.10;;
35506;SDS011;36461;52.018;21.036;2023-02-01T12:03:26;9.90;;;3.50;;
35506;SDS011;36461;52.018;21.036;2023-02-01T12:11:29;14.20;;;3.10;;
35506;SDS011;36461;52.018;21.036;2023-02-01T12:28:58;11.60;;;3.70;;
35506;SDS011;36461;52.018;21.036;2023-02-01T12:39:32;9.00;;;3.10;;
35506;SDS011;36461;52.018;21.036;2023-02-01T12:42:25;13.80;;;3.70;;
35506;SDS011;36461;52.018;21.036;2023-02-01T12:45:03;12.00;;;3.20;;
35506;SDS011;36461;52.018;21.036;2023-02-01T12:47:57;12.70;;;3.90;;
35506;SDS011;36461;52.018;21.036;2023-02-01T12:50:38;14.10;;;3.60;;
35506;SDS011;36461;52.018;21.036;2023-02-01T12:55:43;11.30;;;3.90;;
35506;SDS011;36461;52.018;21.036;2023-02-01T13:00:54;14.00;;;4.70;;
35506;SDS011;36461;52.018;21.036;2023-02-01T13:09:56;12.70;;;4.10;;
35506;SDS011;36461;52.018;21.036;2023-02-01T13:12:44;14.60;;;4.50;;
35506;SDS011;36461;52.018;21.036;2023-02-01T13:15:24;13.60;;;4.60;;
35506;SDS011;36461;52.018;21.036;2023-02-01T13:23:27;13.90;;;5.50;;
35506;SDS011;36461;52.018;21.036;2023-02-01T13:25:59;15.40;;;6.60;;
35506;SDS011;36461;52.018;21.036;2023-02-01T13:28:40;15.10;;;4.40;;
35506;SDS011;36461;52.018;21.036;2023-02-01T13:42:58;15.00;;;4.50;;
35506;SDS011;36461;52.018;21.036;2023-02-01T13:45:33;10.80;;;4.10;;
35506;SDS011;36461;52.018;21.036;2023-02-01T13:48:05;10.20;;;3.70;;
35506;SDS011;36461;52.018;21.036;2023-02-01T13:50:42;5.50;;;2.60;;
35506;SDS011;36461;52.018;21.036;2023-02-01T13:55:39;5.50;;;2.10;;
35506;SDS011;36461;52.018;21.036;2023-02-01T14:00:50;8.30;;;3.90;;
35506;SDS011;36461;52.018;21.036;2023-02-01T14:03:42;11.80;;;6.40;;
35506;SDS011;36461;52.018;21.036;2023-02-01T14:06:15;8.60;;;5.20;;
35506;SDS011;36461;52.018;21.036;2023-02-01T14:08:46;7.90;;;4.50;;
35506;SDS011;36461;52.018;21.036;2023-02-01T14:11:36;14.40;;;9.40;;
35506;SDS011;36461;52.018;21.036;2023-02-01T14:16:43;11.50;;;6.00;;
35506;SDS011;36461;52.018;21.036;2023-02-01T14:19:32;12.00;;;7.50;;
35506;SDS011;36461;52.018;21.036;2023-02-01T14:22:31;11.20;;;5.80;;
35506;SDS011;36461;52.018;21.036;2023-02-01T14:24:55;11.10;;;5.60;;
35506;SDS011;36461;52.018;21.036;2023-02-01T14:27:26;8.30;;;4.90;;
35506;SDS011;36461;52.018;21.036;2023-02-01T14:29:57;8.30;;;5.00;;
35506;SDS011;36461;52.018;21.036;2023-02-01T14:32:36;9.70;;;5.00;;
35506;SDS011;36461;52.018;21.036;2023-02-01T14:35:07;6.10;;;3.90;;
35506;SDS011;36461;52.018;21.036;2023-02-01T14:37:59;10.70;;;3.50;;
35506;SDS011;36461;52.018;21.036;2023-02-01T14:40:30;7.20;;;3.90;;
35506;SDS011;36461;52.018;21.036;2023-02-01T14:42:59;8.70;;;3.70;;
35506;SDS011;36461;52.018;21.036;2023-02-01T14:48:43;7.40;;;3.10;;
35506;SDS011;36461;52.018;21.036;2023-02-01T14:50:46;6.40;;;3.30;;
35506;SDS011;36461;52.018;21.036;2023-02-01T14:53:17;8.90;;;3.40;;
35506;SDS011;36461;52.018;21.036;2023-02-01T15:01:29;6.40;;;3.70;;
35506;SDS011;36461;52.018;21.036;2023-02-01T15:04:08;7.90;;;4.40;;
35506;SDS011;36461;52.018;21.036;2023-02-01T15:14:44;5.60;;;2.20;;
35506;SDS011;36461;52.018;21.036;2023-02-01T15:19:57;5.60;;;3.00;;
35506;SDS011;36461;52.018;21.036;2023-02-01T15:22:27;5.00;;;2.80;;
35506;SDS011;36461;52.018;21.036;2023-02-01T15:25:00;3.40;;;2.20;;
35506;SDS011;36461;52.018;21.036;2023-02-01T15:27:28;5.40;;;2.60;;
35506;SDS011;36461;52.018;21.036;2023-02-01T15:30:05;9.00;;;4.10;;
35506;SDS011;36461;52.018;21.036;2023-02-01T15:32:38;5.90;;;2.90;;
35506;SDS011;36461;52.018;21.036;2023-02-01T15:36:10;5.30;;;3.10;;
35506;SDS011;36461;52.018;21.036;2023-02-01T15:43:39;6.70;;;3.00;;
35506;SDS011;36461;52.018;21.036;2023-02-01T15:46:11;5.50;;;3.20;;
35506;SDS011;36461;52.018;21.036;2023-02-01T15:48:46;9.80;;;5.30;;
35506;SDS011;36461;52.018;21.036;2023-02-01T15:51:17;9.40;;;5.60;;
35506;SDS011;36461;52.018;21.036;2023-02-01T15:53:49;8.10;;;4.80;;
35506;SDS011;36461;52.018;21.036;2023-02-01T15:56:23;6.60;;;3.40;;
35506;SDS011;36461;52.018;21.036;2023-02-01T15:58:56;6.90;;;3.40;;
35506;SDS011;36461;52.018;21.036;2023-02-01T16:01:27;6.60;;;3.70;;
35506;SDS011;36461;52.018;21.036;2023-02-01T16:06:47;4.90;;;2.80;;
35506;SDS011;36461;52.018;21.036;2023-02-01T16:09:16;9.10;;;5.90;;
35506;SDS011;36461;52.018;21.036;2023-02-01T16:14:16;9.40;;;4.50;;
35506;SDS011;36461;52.018;21.036;2023-02-01T16:16:45;7.90;;;4.40;;
35506;SDS011;36461;52.018;21.036;2023-02-01T16:19:13;6.20;;;3.40;;
35506;SDS011;36461;52.018;21.036;2023-02-01T16:21:41;7.50;;;4.60;;
35506;SDS011;36461;52.018;21.036;2023-02-01T16:24:09;6.60;;;4.30;;
35506;SDS011;36461;52.018;21.036;2023-02-01T16:26:38;7.90;;;4.90;;
35506;SDS011;36461;52.018;21.036;2023-02-01T16:29:06;9.30;;;4.70;;
35506;SDS011;36461;52.018;21.036;2023-02-01T16:31:36;10.10;;;5.80;;
35506;SDS011;36461;52.018;21.036;2023-02-01T16:34:11;10.80;;;7.60;;
35506;SDS011;36461;52.018;21.036;2023-02-01T16:36:48;15.20;;;10.10;;
35506;SDS011;36461;52.018;21.036;2023-02-01T16:39:21;13.70;;;6.80;;
35506;SDS011;36461;52.018;21.036;2023-02-01T16:41:49;7.80;;;4.50;;
35506;SDS011;36461;52.018;21.036;2023-02-01T16:44:18;6.10;;;3.50;;
35506;SDS011;36461;52.018;21.036;2023-02-01T16:46:46;9.80;;;4.40;;
35506;SDS011;36461;52.018;21.036;2023-02-01T16:49:20;6.20;;;3.50;;
35506;SDS011;36461;52.018;21.036;2023-02-01T16:51:51;8.00;;;3.60;;
35506;SDS011;36461;52.018;21.036;2023-02-01T16:54:22;7.40;;;3.30;;
35506;SDS011;36461;52.018;21.036;2023-02-01T16:56:50;9.30;;;4.20;;
35506;SDS011;36461;52.018;21.036;2023-02-01T16:59:18;7.50;;;3.80;;
35506;SDS011;36461;52.018;21.036;2023-02-01T17:01:47;7.40;;;3.80;;
35506;SDS011;36461;52.018;21.036;2023-02-01T17:04:15;5.30;;;3.50;;
35506;SDS011;36461;52.018;21.036;2023-02-01T17:06:44;6.70;;;3.60;;
35506;SDS011;36461;52.018;21.036;2023-02-01T17:09:14;6.00;;;3.70;;
35506;SDS011;36461;52.018;21.036;2023-02-01T17:11:42;7.40;;;4.10;;
35506;SDS011;36461;52.018;21.036;2023-02-01T17:14:17;9.60;;;4.40;;
35506;SDS011;36461;52.018;21.036;2023-02-01T17:16:48;7.00;;;4.00;;
35506;SDS011;36461;52.018;21.036;2023-02-01T17:19:19;5.80;;;3.40;;
35506;SDS011;36461;52.018;21.036;2023-02-01T17:21:52;6.40;;;3.90;;
35506;SDS011;36461;52.018;21.036;2023-02-01T17:24:28;7.10;;;4.00;;
35506;SDS011;36461;52.018;21.036;2023-02-01T17:27:15;10.30;;;4.00;;
35506;SDS011;36461;52.018;21.036;2023-02-01T17:29:44;9.20;;;4.30;;
35506;SDS011;36461;52.018;21.036;2023-02-01T17:32:15;9.00;;;4.90;;
35506;SDS011;36461;52.018;21.036;2023-02-01T17:34:46;8.00;;;4.80;;
35506;SDS011;36461;52.018;21.036;2023-02-01T17:37:26;8.10;;;5.00;;
35506;SDS011;36461;52.018;21.036;2023-02-01T17:39:56;11.70;;;6.80;;
35506;SDS011;36461;52.018;21.036;2023-02-01T17:42:25;11.50;;;5.70;;
35506;SDS011;36461;52.018;21.036;2023-02-01T17:44:55;9.40;;;5.50;;
35506;SDS011;36461;52.018;21.036;2023-02-01T17:47:29;8.50;;;4.50;;
35506;SDS011;36461;52.018;21.036;2023-02-01T17:49:57;10.30;;;6.40;;
35506;SDS011;36461;52.018;21.036;2023-02-01T17:52:25;10.50;;;5.10;;